sensor_id;sensor_type;location;lat;lon;timestamp;pressure;altitude;pressure_sealevel;temperature;humidity
14689;BME280;7432;48.728;9.154;2022-07-23T00:01:50;96620.06;;;24.01;56.25
14689;BME280;7432;48.728;9.154;2022-07-23T00:04:16;96623.81;;;24.05;56.00
14689;BME280;7432;48.728;9.154;2022-07-23T00:06:43;96616.63;;;24.00;55.80
14689;BME280;7432;48.728;9.154;2022-07-23T00:09:09;96614.47;;;23.97;56.38
14689;BME280;7432;48.728;9.154;2022-07-23T00:11:36;96615.50;;;23.96;56.50
14689;BME280;7432;48.728;9.154;2022-07-23T00:14:02;96604.44;;;23.94;56.22
14689;BME280;7432;48.728;9.154;2022-07-23T00:16:30;96608.28;;;23.87;56.19
14689;BME280;7432;48.728;9.154;2022-07-23T00:18:57;96596.88;;;23.81;54.98
14689;BME280;7432;48.728;9.154;2022-07-23T00:21:26;96599.44;;;23.76;55.73
14689;BME280;7432;48.728;9.154;2022-07-23T00:23:52;96603.75;;;23.66;55.52
14689;BME280;7432;48.728;9.154;2022-07-23T00:26:19;96606.53;;;23.76;55.03
14689;BME280;7432;48.728;9.154;2022-07-23T00:28:45;96601.53;;;23.74;55.57
14689;BME280;7432;48.728;9.154;2022-07-23T00:31:12;96602.22;;;23.70;56.13
14689;BME280;7432;48.728;9.154;2022-07-23T00:33:39;96598.78;;;23.69;56.62
14689;BME280;7432;48.728;9.154;2022-07-23T00:36:07;96595.00;;;23.60;59.54
14689;BME280;7432;48.728;9.154;2022-07-23T00:38:33;96604.38;;;23.39;61.14
14689;BME280;7432;48.728;9.154;2022-07-23T00:41:00;96595.22;;;23.14;63.43
14689;BME280;7432;48.728;9.154;2022-07-23T00:43:26;96580.91;;;22.93;63.78
14689;BME280;7432;48.728;9.154;2022-07-23T00:45:53;96558.38;;;22.80;64.45
14689;BME280;7432;48.728;9.154;2022-07-23T00:48:19;96547.81;;;22.64;66.84
14689;BME280;7432;48.728;9.154;2022-07-23T00:50:47;96522.47;;;22.58;66.74
14689;BME280;7432;48.728;9.154;2022-07-23T00:53:14;96546.56;;;22.55;66.93
14689;BME280;7432;48.728;9.154;2022-07-23T00:55:41;96563.00;;;22.62;66.70
14689;BME280;7432;48.728;9.154;2022-07-23T00:58:08;96562.31;;;22.55;67.03
14689;BME280;7432;48.728;9.154;2022-07-23T01:03:01;96560.94;;;22.52;65.99
14689;BME280;7432;48.728;9.154;2022-07-23T01:05:27;96565.88;;;22.49;66.02
14689;BME280;7432;48.728;9.154;2022-07-23T01:07:55;96556.50;;;22.53;64.85
14689;BME280;7432;48.728;9.154;2022-07-23T01:10:22;96556.50;;;22.53;65.17
14689;BME280;7432;48.728;9.154;2022-07-23T01:12:58;96556.03;;;22.56;63.86
14689;BME280;7432;48.728;9.154;2022-07-23T01:15:25;96543.47;;;22.58;64.81
14689;BME280;7432;48.728;9.154;2022-07-23T01:17:52;96529.88;;;22.61;64.52
14689;BME280;7432;48.728;9.154;2022-07-23T01:20:18;96535.69;;;22.63;63.18
14689;BME280;7432;48.728;9.154;2022-07-23T01:22:46;96534.31;;;22.60;63.10
14689;BME280;7432;48.728;9.154;2022-07-23T01:25:13;96532.50;;;22.61;62.24
14689;BME280;7432;48.728;9.154;2022-07-23T01:27:39;96537.88;;;22.66;61.68
14689;BME280;7432;48.728;9.154;2022-07-23T01:30:07;96531.81;;;22.65;61.53
14689;BME280;7432;48.728;9.154;2022-07-23T01:32:34;96527.38;;;22.66;61.60
14689;BME280;7432;48.728;9.154;2022-07-23T01:35:00;96507.63;;;22.63;63.13
14689;BME280;7432;48.728;9.154;2022-07-23T01:37:27;96469.59;;;22.66;63.37
14689;BME280;7432;48.728;9.154;2022-07-23T01:39:54;96470.16;;;22.68;63.61
14689;BME280;7432;48.728;9.154;2022-07-23T01:42:21;96516.75;;;22.61;64.83
14689;BME280;7432;48.728;9.154;2022-07-23T01:44:48;96507.84;;;22.62;64.09
14689;BME280;7432;48.728;9.154;2022-07-23T01:47:14;96510.47;;;22.62;65.06
14689;BME280;7432;48.728;9.154;2022-07-23T01:52:07;96516.09;;;22.54;65.42
14689;BME280;7432;48.728;9.154;2022-07-23T01:54:37;96534.59;;;22.47;65.05
14689;BME280;7432;48.728;9.154;2022-07-23T01:57:05;96544.56;;;22.45;65.05
14689;BME280;7432;48.728;9.154;2022-07-23T01:59:33;96548.56;;;22.36;64.80
14689;BME280;7432;48.728;9.154;2022-07-23T02:01:59;96538.88;;;22.36;64.91
14689;BME280;7432;48.728;9.154;2022-07-23T02:04:26;96527.13;;;22.27;65.40
14689;BME280;7432;48.728;9.154;2022-07-23T02:06:53;96517.25;;;22.18;64.93
14689;BME280;7432;48.728;9.154;2022-07-23T02:09:20;96527.84;;;22.11;65.49
14689;BME280;7432;48.728;9.154;2022-07-23T02:11:47;96537.53;;;22.11;65.45
14689;BME280;7432;48.728;9.154;2022-07-23T02:14:14;96541.31;;;22.15;66.15
14689;BME280;7432;48.728;9.154;2022-07-23T02:16:41;96552.28;;;22.12;65.00
14689;BME280;7432;48.728;9.154;2022-07-23T02:19:07;96552.81;;;22.14;65.75
14689;BME280;7432;48.728;9.154;2022-07-23T02:21:34;96555.91;;;22.11;65.63
14689;BME280;7432;48.728;9.154;2022-07-23T02:24:00;96560.59;;;22.09;65.38
14689;BME280;7432;48.728;9.154;2022-07-23T02:26:27;96568.47;;;22.09;65.90
14689;BME280;7432;48.728;9.154;2022-07-23T02:28:53;96582.28;;;22.04;65.88
14689;BME280;7432;48.728;9.154;2022-07-23T02:31:21;96590.38;;;22.03;66.51
14689;BME280;7432;48.728;9.154;2022-07-23T02:33:48;96596.66;;;22.02;66.88
14689;BME280;7432;48.728;9.154;2022-07-23T02:36:14;96604.06;;;22.05;67.30
14689;BME280;7432;48.728;9.154;2022-07-23T02:38:41;96618.09;;;21.99;67.08
14689;BME280;7432;48.728;9.154;2022-07-23T02:41:07;96612.16;;;21.92;67.61
14689;BME280;7432;48.728;9.154;2022-07-23T02:43:34;96616.28;;;21.99;67.28
14689;BME280;7432;48.728;9.154;2022-07-23T02:46:00;96623.00;;;21.95;67.42
14689;BME280;7432;48.728;9.154;2022-07-23T02:48:28;96631.75;;;21.89;67.23
14689;BME280;7432;48.728;9.154;2022-07-23T02:50:55;96633.56;;;21.89;66.19
14689;BME280;7432;48.728;9.154;2022-07-23T02:53:22;96638.63;;;21.90;66.63
14689;BME280;7432;48.728;9.154;2022-07-23T02:55:48;96629.94;;;21.90;66.85
14689;BME280;7432;48.728;9.154;2022-07-23T02:58:15;96626.94;;;21.86;67.46
14689;BME280;7432;48.728;9.154;2022-07-23T03:00:41;96624.31;;;21.86;67.57
14689;BME280;7432;48.728;9.154;2022-07-23T03:03:08;96633.00;;;21.87;66.27
14689;BME280;7432;48.728;9.154;2022-07-23T03:05:36;96631.41;;;21.85;67.66
14689;BME280;7432;48.728;9.154;2022-07-23T03:08:03;96636.19;;;21.89;66.71
14689;BME280;7432;48.728;9.154;2022-07-23T03:10:29;96638.47;;;21.85;66.60
14689;BME280;7432;48.728;9.154;2022-07-23T03:12:56;96641.31;;;21.83;66.58
14689;BME280;7432;48.728;9.154;2022-07-23T03:15:22;96648.75;;;21.87;66.26
14689;BME280;7432;48.728;9.154;2022-07-23T03:17:49;96645.69;;;21.90;67.16
14689;BME280;7432;48.728;9.154;2022-07-23T03:20:15;96646.13;;;21.87;66.91
14689;BME280;7432;48.728;9.154;2022-07-23T03:22:43;96645.28;;;21.86;67.46
14689;BME280;7432;48.728;9.154;2022-07-23T03:25:10;96643.50;;;21.87;67.37
14689;BME280;7432;48.728;9.154;2022-07-23T03:27:36;96626.16;;;21.85;67.30
14689;BME280;7432;48.728;9.154;2022-07-23T03:30:03;96620.78;;;21.80;66.94
14689;BME280;7432;48.728;9.154;2022-07-23T03:32:30;96615.41;;;21.75;67.01
14689;BME280;7432;48.728;9.154;2022-07-23T03:34:56;96619.66;;;21.76;67.08
14689;BME280;7432;48.728;9.154;2022-07-23T03:37:23;96616.56;;;21.79;67.38
14689;BME280;7432;48.728;9.154;2022-07-23T03:39:51;96620.44;;;21.77;67.64
14689;BME280;7432;48.728;9.154;2022-07-23T03:42:17;96628.31;;;21.77;67.52
14689;BME280;7432;48.728;9.154;2022-07-23T03:44:44;96624.53;;;21.73;67.92
14689;BME280;7432;48.728;9.154;2022-07-23T03:47:10;96626.81;;;21.69;67.86
14689;BME280;7432;48.728;9.154;2022-07-23T03:49:37;96630.81;;;21.60;67.92
14689;BME280;7432;48.728;9.154;2022-07-23T03:52:04;96625.00;;;21.58;68.38
14689;BME280;7432;48.728;9.154;2022-07-23T03:54:30;96623.72;;;21.49;68.74
14689;BME280;7432;48.728;9.154;2022-07-23T03:56:58;96633.47;;;21.42;69.16
14689;BME280;7432;48.728;9.154;2022-07-23T03:59:25;96634.16;;;21.38;69.22
14689;BME280;7432;48.728;9.154;2022-07-23T04:01:51;96639.28;;;21.33;69.59
14689;BME280;7432;48.728;9.154;2022-07-23T04:04:18;96646.13;;;21.34;70.65
14689;BME280;7432;48.728;9.154;2022-07-23T04:06:44;96648.50;;;21.35;70.03
14689;BME280;7432;48.728;9.154;2022-07-23T04:09:10;96661.38;;;21.37;69.95
14689;BME280;7432;48.728;9.154;2022-07-23T04:11:37;96650.25;;;21.41;70.35
14689;BME280;7432;48.728;9.154;2022-07-23T04:14:05;96643.53;;;21.45;70.13
14689;BME280;7432;48.728;9.154;2022-07-23T04:16:32;96643.88;;;21.49;69.83
14689;BME280;7432;48.728;9.154;2022-07-23T04:18:58;96650.28;;;21.53;69.66
14689;BME280;7432;48.728;9.154;2022-07-23T04:21:25;96654.94;;;21.51;69.65
14689;BME280;7432;48.728;9.154;2022-07-23T04:23:51;96660.16;;;21.51;69.56
14689;BME280;7432;48.728;9.154;2022-07-23T04:26:18;96658.59;;;21.50;69.67
14689;BME280;7432;48.728;9.154;2022-07-23T04:28:44;96658.47;;;21.56;69.00
14689;BME280;7432;48.728;9.154;2022-07-23T04:31:12;96654.97;;;21.62;69.11
14689;BME280;7432;48.728;9.154;2022-07-23T04:33:39;96652.00;;;21.70;69.21
14689;BME280;7432;48.728;9.154;2022-07-23T04:36:06;96649.19;;;21.72;69.02
14689;BME280;7432;48.728;9.154;2022-07-23T04:38:32;96658.41;;;21.74;69.24
14689;BME280;7432;48.728;9.154;2022-07-23T04:40:59;96652.56;;;21.72;69.24
14689;BME280;7432;48.728;9.154;2022-07-23T04:43:26;96635.47;;;21.70;68.26
14689;BME280;7432;48.728;9.154;2022-07-23T04:45:52;96645.75;;;21.71;69.13
14689;BME280;7432;48.728;9.154;2022-07-23T04:48:21;96645.50;;;21.73;69.18
14689;BME280;7432;48.728;9.154;2022-07-23T04:50:47;96648.50;;;21.76;69.21
14689;BME280;7432;48.728;9.154;2022-07-23T04:53:14;96643.72;;;21.85;68.78
14689;BME280;7432;48.728;9.154;2022-07-23T04:55:41;96658.09;;;21.94;68.68
14689;BME280;7432;48.728;9.154;2022-07-23T04:58:07;96648.53;;;22.11;67.67
14689;BME280;7432;48.728;9.154;2022-07-23T05:00:34;96640.78;;;22.28;67.02
14689;BME280;7432;48.728;9.154;2022-07-23T05:03:00;96645.88;;;22.46;67.56
14689;BME280;7432;48.728;9.154;2022-07-23T05:05:28;96656.00;;;22.54;66.46
14689;BME280;7432;48.728;9.154;2022-07-23T05:07:54;96654.66;;;22.63;65.92
14689;BME280;7432;48.728;9.154;2022-07-23T05:10:21;96647.78;;;22.74;65.53
14689;BME280;7432;48.728;9.154;2022-07-23T05:12:47;96649.38;;;22.86;64.25
14689;BME280;7432;48.728;9.154;2022-07-23T05:15:14;96663.25;;;22.98;63.17
14689;BME280;7432;48.728;9.154;2022-07-23T05:17:40;96662.66;;;23.08;63.14
14689;BME280;7432;48.728;9.154;2022-07-23T05:20:08;96664.38;;;23.14;63.48
14689;BME280;7432;48.728;9.154;2022-07-23T05:22:36;96652.63;;;23.05;62.41
14689;BME280;7432;48.728;9.154;2022-07-23T05:25:02;96661.69;;;22.97;62.89
14689;BME280;7432;48.728;9.154;2022-07-23T05:27:30;96661.25;;;22.89;62.50
14689;BME280;7432;48.728;9.154;2022-07-23T05:29:56;96673.75;;;22.98;63.83
14689;BME280;7432;48.728;9.154;2022-07-23T05:32:23;96677.63;;;23.08;64.95
14689;BME280;7432;48.728;9.154;2022-07-23T05:34:50;96675.13;;;23.29;64.49
14689;BME280;7432;48.728;9.154;2022-07-23T05:37:16;96679.34;;;23.42;64.52
14689;BME280;7432;48.728;9.154;2022-07-23T05:39:45;96681.59;;;23.67;62.82
14689;BME280;7432;48.728;9.154;2022-07-23T05:42:11;96687.75;;;23.89;62.55
14689;BME280;7432;48.728;9.154;2022-07-23T05:44:37;96681.78;;;24.10;62.98
14689;BME280;7432;48.728;9.154;2022-07-23T05:47:04;96684.44;;;24.10;62.29
14689;BME280;7432;48.728;9.154;2022-07-23T05:49:30;96676.84;;;23.97;59.57
14689;BME280;7432;48.728;9.154;2022-07-23T05:51:57;96681.28;;;23.96;60.03
14689;BME280;7432;48.728;9.154;2022-07-23T05:54:24;96688.56;;;23.89;61.63
14689;BME280;7432;48.728;9.154;2022-07-23T05:56:51;96686.41;;;23.86;61.37
14689;BME280;7432;48.728;9.154;2022-07-23T05:59:18;96681.94;;;23.87;63.14
14689;BME280;7432;48.728;9.154;2022-07-23T06:01:45;96692.13;;;23.83;62.46
14689;BME280;7432;48.728;9.154;2022-07-23T06:04:11;96693.41;;;23.81;61.42
14689;BME280;7432;48.728;9.154;2022-07-23T06:06:37;96687.13;;;23.82;61.62
14689;BME280;7432;48.728;9.154;2022-07-23T06:09:04;96692.13;;;23.83;62.55
14689;BME280;7432;48.728;9.154;2022-07-23T06:11:30;96679.06;;;23.88;63.21
14689;BME280;7432;48.728;9.154;2022-07-23T06:13:58;96686.34;;;23.98;63.37
14689;BME280;7432;48.728;9.154;2022-07-23T06:16:25;96679.88;;;24.05;63.26
14689;BME280;7432;48.728;9.154;2022-07-23T06:18:51;96676.75;;;24.08;62.35
14689;BME280;7432;48.728;9.154;2022-07-23T06:21:17;96668.75;;;24.15;61.02
14689;BME280;7432;48.728;9.154;2022-07-23T06:23:44;96664.03;;;24.17;60.42
14689;BME280;7432;48.728;9.154;2022-07-23T06:26:10;96664.00;;;24.34;60.81
14689;BME280;7432;48.728;9.154;2022-07-23T06:28:37;96674.19;;;24.68;57.45
14689;BME280;7432;48.728;9.154;2022-07-23T06:31:04;96693.53;;;24.96;56.53
14689;BME280;7432;48.728;9.154;2022-07-23T06:33:31;96699.41;;;25.03;56.97
14689;BME280;7432;48.728;9.154;2022-07-23T06:35:57;96700.66;;;24.95;58.11
14689;BME280;7432;48.728;9.154;2022-07-23T06:38:24;96701.16;;;24.75;57.57
14689;BME280;7432;48.728;9.154;2022-07-23T06:40:51;96704.91;;;24.41;58.14
14689;BME280;7432;48.728;9.154;2022-07-23T06:43:17;96709.31;;;24.19;58.62
14689;BME280;7432;48.728;9.154;2022-07-23T06:45:44;96701.19;;;24.04;59.59
14689;BME280;7432;48.728;9.154;2022-07-23T06:48:11;96711.41;;;24.17;59.05
14689;BME280;7432;48.728;9.154;2022-07-23T06:50:38;96711.34;;;24.67;58.69
14689;BME280;7432;48.728;9.154;2022-07-23T06:53:04;96718.28;;;25.16;56.81
14689;BME280;7432;48.728;9.154;2022-07-23T06:55:31;96716.38;;;25.33;55.91
14689;BME280;7432;48.728;9.154;2022-07-23T06:57:57;96724.94;;;25.19;56.49
14689;BME280;7432;48.728;9.154;2022-07-23T07:00:26;96724.38;;;24.95;56.29
14689;BME280;7432;48.728;9.154;2022-07-23T07:02:53;96725.38;;;24.72;56.84
14689;BME280;7432;48.728;9.154;2022-07-23T07:05:21;96731.78;;;24.60;56.76
14689;BME280;7432;48.728;9.154;2022-07-23T07:07:50;96739.88;;;24.53;57.32
14689;BME280;7432;48.728;9.154;2022-07-23T07:10:17;96749.03;;;24.51;58.11
14689;BME280;7432;48.728;9.154;2022-07-23T07:12:43;96743.03;;;24.55;58.03
14689;BME280;7432;48.728;9.154;2022-07-23T07:15:10;96742.16;;;24.66;58.56
14689;BME280;7432;48.728;9.154;2022-07-23T07:17:37;96738.81;;;24.54;57.41
14689;BME280;7432;48.728;9.154;2022-07-23T07:20:05;96737.72;;;24.50;56.24
14689;BME280;7432;48.728;9.154;2022-07-23T07:22:34;96728.63;;;24.25;56.48
14689;BME280;7432;48.728;9.154;2022-07-23T07:25:00;96724.59;;;23.89;56.15
14689;BME280;7432;48.728;9.154;2022-07-23T07:27:26;96731.28;;;23.96;55.77
14689;BME280;7432;48.728;9.154;2022-07-23T07:29:53;96737.91;;;23.82;55.93
14689;BME280;7432;48.728;9.154;2022-07-23T07:32:19;96731.13;;;23.86;56.67
14689;BME280;7432;48.728;9.154;2022-07-23T07:34:46;96737.06;;;23.93;56.93
14689;BME280;7432;48.728;9.154;2022-07-23T07:37:13;96729.88;;;24.05;55.59
14689;BME280;7432;48.728;9.154;2022-07-23T07:39:40;96745.91;;;24.37;55.66
14689;BME280;7432;48.728;9.154;2022-07-23T07:42:07;96761.06;;;24.80;53.72
14689;BME280;7432;48.728;9.154;2022-07-23T07:44:33;96762.97;;;25.71;51.91
14689;BME280;7432;48.728;9.154;2022-07-23T07:47:00;96764.31;;;27.11;49.44
14689;BME280;7432;48.728;9.154;2022-07-23T07:49:26;96780.34;;;29.48;43.88
14689;BME280;7432;48.728;9.154;2022-07-23T07:51:53;96791.34;;;31.34;40.81
14689;BME280;7432;48.728;9.154;2022-07-23T07:54:19;96793.47;;;32.49;38.97
14689;BME280;7432;48.728;9.154;2022-07-23T07:56:47;96803.28;;;34.84;36.54
14689;BME280;7432;48.728;9.154;2022-07-23T07:59:14;96806.22;;;36.09;32.58
14689;BME280;7432;48.728;9.154;2022-07-23T08:01:41;96827.19;;;36.67;32.57
14689;BME280;7432;48.728;9.154;2022-07-23T08:04:08;96820.25;;;36.32;33.38
14689;BME280;7432;48.728;9.154;2022-07-23T08:06:34;96838.38;;;36.00;34.32
14689;BME280;7432;48.728;9.154;2022-07-23T08:09:00;96823.69;;;34.71;34.68
14689;BME280;7432;48.728;9.154;2022-07-23T08:11:27;96832.75;;;35.15;34.50
14689;BME280;7432;48.728;9.154;2022-07-23T08:13:55;96826.63;;;34.83;33.95
14689;BME280;7432;48.728;9.154;2022-07-23T08:16:21;96833.19;;;33.56;36.30
14689;BME280;7432;48.728;9.154;2022-07-23T08:18:48;96825.44;;;32.87;37.82
14689;BME280;7432;48.728;9.154;2022-07-23T08:21:14;96827.78;;;31.39;39.08
14689;BME280;7432;48.728;9.154;2022-07-23T08:23:42;96815.88;;;30.06;40.69
14689;BME280;7432;48.728;9.154;2022-07-23T08:26:08;96812.00;;;29.19;43.48
14689;BME280;7432;48.728;9.154;2022-07-23T08:28:35;96796.69;;;28.56;44.80
14689;BME280;7432;48.728;9.154;2022-07-23T08:31:02;96796.66;;;28.00;45.76
14689;BME280;7432;48.728;9.154;2022-07-23T08:33:31;96803.66;;;27.54;47.33
14689;BME280;7432;48.728;9.154;2022-07-23T08:35:57;96795.72;;;27.44;49.41
14689;BME280;7432;48.728;9.154;2022-07-23T08:38:24;96800.69;;;28.78;46.39
14689;BME280;7432;48.728;9.154;2022-07-23T08:40:52;96809.88;;;31.44;40.47
14689;BME280;7432;48.728;9.154;2022-07-23T08:43:20;96815.19;;;33.21;37.14
14689;BME280;7432;48.728;9.154;2022-07-23T08:45:49;96818.28;;;34.63;35.27
14689;BME280;7432;48.728;9.154;2022-07-23T08:48:18;96827.31;;;36.96;31.80
14689;BME280;7432;48.728;9.154;2022-07-23T08:50:46;96817.19;;;37.02;31.67
14689;BME280;7432;48.728;9.154;2022-07-23T08:53:14;96832.47;;;38.27;29.88
14689;BME280;7432;48.728;9.154;2022-07-23T08:55:43;96819.72;;;39.01;28.74
14689;BME280;7432;48.728;9.154;2022-07-23T08:58:10;96826.28;;;39.85;28.50
14689;BME280;7432;48.728;9.154;2022-07-23T09:00:36;96827.31;;;40.60;26.67
14689;BME280;7432;48.728;9.154;2022-07-23T09:03:02;96835.34;;;38.96;27.08
14689;BME280;7432;48.728;9.154;2022-07-23T09:05:30;96818.81;;;37.61;29.32
14689;BME280;7432;48.728;9.154;2022-07-23T09:08:10;96816.50;;;37.13;29.71
14689;BME280;7432;48.728;9.154;2022-07-23T09:10:47;96814.22;;;36.77;29.69
14689;BME280;7432;48.728;9.154;2022-07-23T09:13:31;96825.63;;;37.88;27.85
14689;BME280;7432;48.728;9.154;2022-07-23T09:16:01;96822.84;;;38.59;27.74
14689;BME280;7432;48.728;9.154;2022-07-23T09:18:32;96820.44;;;39.83;26.41
14689;BME280;7432;48.728;9.154;2022-07-23T09:21:08;96811.34;;;39.63;26.67
14689;BME280;7432;48.728;9.154;2022-07-23T09:23:40;96825.03;;;41.06;25.79
14689;BME280;7432;48.728;9.154;2022-07-23T09:26:18;96820.78;;;41.36;23.72
14689;BME280;7432;48.728;9.154;2022-07-23T09:28:54;96824.88;;;41.96;23.93
14689;BME280;7432;48.728;9.154;2022-07-23T09:31:21;96820.78;;;42.40;23.88
14689;BME280;7432;48.728;9.154;2022-07-23T09:33:47;96818.34;;;42.96;23.59
14689;BME280;7432;48.728;9.154;2022-07-23T09:36:15;96815.00;;;43.03;22.90
14689;BME280;7432;48.728;9.154;2022-07-23T09:38:48;96812.19;;;43.45;22.55
14689;BME280;7432;48.728;9.154;2022-07-23T09:41:15;96805.72;;;43.79;22.38
14689;BME280;7432;48.728;9.154;2022-07-23T09:43:42;96811.94;;;44.72;21.79
14689;BME280;7432;48.728;9.154;2022-07-23T09:46:19;96799.50;;;45.15;21.76
14689;BME280;7432;48.728;9.154;2022-07-23T09:48:46;96807.63;;;45.59;20.81
14689;BME280;7432;48.728;9.154;2022-07-23T09:51:12;96802.84;;;44.95;21.85
14689;BME280;7432;48.728;9.154;2022-07-23T09:53:41;96804.28;;;44.48;22.41
14689;BME280;7432;48.728;9.154;2022-07-23T09:56:08;96799.75;;;43.70;22.72
14689;BME280;7432;48.728;9.154;2022-07-23T09:58:36;96807.25;;;44.36;22.63
14689;BME280;7432;48.728;9.154;2022-07-23T10:01:10;96801.72;;;44.62;22.26
14689;BME280;7432;48.728;9.154;2022-07-23T10:03:39;96804.03;;;44.27;21.76
14689;BME280;7432;48.728;9.154;2022-07-23T10:06:07;96797.47;;;43.23;23.00
14689;BME280;7432;48.728;9.154;2022-07-23T10:08:34;96792.75;;;42.14;23.75
14689;BME280;7432;48.728;9.154;2022-07-23T10:11:03;96798.91;;;41.60;24.13
14689;BME280;7432;48.728;9.154;2022-07-23T10:13:30;96791.88;;;41.24;24.44
14689;BME280;7432;48.728;9.154;2022-07-23T10:16:18;96788.69;;;40.60;25.19
14689;BME280;7432;48.728;9.154;2022-07-23T10:18:45;96789.97;;;40.94;25.07
14689;BME280;7432;48.728;9.154;2022-07-23T10:21:12;96802.66;;;41.71;25.09
14689;BME280;7432;48.728;9.154;2022-07-23T10:23:47;96796.81;;;40.60;25.56
14689;BME280;7432;48.728;9.154;2022-07-23T10:26:23;96797.50;;;39.17;26.62
14689;BME280;7432;48.728;9.154;2022-07-23T10:29:02;96784.03;;;38.06;28.57
14689;BME280;7432;48.728;9.154;2022-07-23T10:31:42;96784.94;;;38.31;28.18
14689;BME280;7432;48.728;9.154;2022-07-23T10:34:19;96782.91;;;37.86;28.50
14689;BME280;7432;48.728;9.154;2022-07-23T10:36:51;96782.09;;;36.17;30.39
14689;BME280;7432;48.728;9.154;2022-07-23T10:39:22;96782.28;;;34.99;32.49
14689;BME280;7432;48.728;9.154;2022-07-23T10:41:51;96778.44;;;33.81;33.61
14689;BME280;7432;48.728;9.154;2022-07-23T10:44:19;96776.50;;;34.09;34.22
14689;BME280;7432;48.728;9.154;2022-07-23T10:46:54;96776.03;;;35.13;31.61
14689;BME280;7432;48.728;9.154;2022-07-23T10:49:35;96778.09;;;35.72;31.49
14689;BME280;7432;48.728;9.154;2022-07-23T10:52:18;96782.00;;;36.77;29.78
14689;BME280;7432;48.728;9.154;2022-07-23T10:54:46;96779.94;;;38.21;28.35
14689;BME280;7432;48.728;9.154;2022-07-23T10:57:16;96784.03;;;39.41;27.43
14689;BME280;7432;48.728;9.154;2022-07-23T11:00:15;96779.59;;;40.96;25.36
14689;BME280;7432;48.728;9.154;2022-07-23T11:02:44;96781.97;;;38.89;26.93
14689;BME280;7432;48.728;9.154;2022-07-23T11:05:13;96783.72;;;39.42;26.35
14689;BME280;7432;48.728;9.154;2022-07-23T11:08:13;96785.28;;;39.31;26.91
14689;BME280;7432;48.728;9.154;2022-07-23T11:10:44;96781.38;;;39.93;26.85
14689;BME280;7432;48.728;9.154;2022-07-23T11:13:30;96771.56;;;39.73;26.18
14689;BME280;7432;48.728;9.154;2022-07-23T11:19:10;96780.56;;;37.76;28.88
14689;BME280;7432;48.728;9.154;2022-07-23T11:21:47;96770.50;;;37.44;28.64
14689;BME280;7432;48.728;9.154;2022-07-23T11:24:15;96778.94;;;37.63;28.40
14689;BME280;7432;48.728;9.154;2022-07-23T11:27:03;96770.94;;;36.70;29.69
14689;BME280;7432;48.728;9.154;2022-07-23T11:29:44;96767.06;;;35.99;31.35
14689;BME280;7432;48.728;9.154;2022-07-23T11:32:33;96770.22;;;35.10;31.90
14689;BME280;7432;48.728;9.154;2022-07-23T11:35:01;96767.88;;;34.34;32.51
14689;BME280;7432;48.728;9.154;2022-07-23T11:37:38;96772.81;;;33.82;33.79
14689;BME280;7432;48.728;9.154;2022-07-23T11:40:07;96771.41;;;35.44;32.29
14689;BME280;7432;48.728;9.154;2022-07-23T11:42:37;96763.94;;;36.87;30.14
14689;BME280;7432;48.728;9.154;2022-07-23T11:45:07;96770.69;;;38.10;28.73
14689;BME280;7432;48.728;9.154;2022-07-23T11:47:34;96777.13;;;38.38;27.49
14689;BME280;7432;48.728;9.154;2022-07-23T11:50:03;96781.56;;;37.72;27.52
14689;BME280;7432;48.728;9.154;2022-07-23T11:52:31;96776.72;;;38.60;27.04
14689;BME280;7432;48.728;9.154;2022-07-23T11:54:59;96766.72;;;38.48;28.37
14689;BME280;7432;48.728;9.154;2022-07-23T11:57:27;96764.06;;;38.73;27.46
14689;BME280;7432;48.728;9.154;2022-07-23T11:59:56;96759.31;;;38.90;27.86
14689;BME280;7432;48.728;9.154;2022-07-23T12:02:24;96760.22;;;39.43;26.97
14689;BME280;7432;48.728;9.154;2022-07-23T12:04:52;96770.09;;;39.51;26.45
14689;BME280;7432;48.728;9.154;2022-07-23T12:07:28;96760.75;;;38.76;27.23
14689;BME280;7432;48.728;9.154;2022-07-23T12:09:56;96757.75;;;38.57;28.29
14689;BME280;7432;48.728;9.154;2022-07-23T12:12:23;96756.59;;;38.45;27.89
14689;BME280;7432;48.728;9.154;2022-07-23T12:14:51;96757.00;;;37.23;28.69
14689;BME280;7432;48.728;9.154;2022-07-23T12:17:18;96759.81;;;35.18;30.83
14689;BME280;7432;48.728;9.154;2022-07-23T12:19:47;96754.81;;;33.74;33.26
14689;BME280;7432;48.728;9.154;2022-07-23T12:22:13;96745.28;;;33.05;34.41
14689;BME280;7432;48.728;9.154;2022-07-23T12:24:54;96688.31;;;32.23;35.03
14689;BME280;7432;48.728;9.154;2022-07-23T12:27:21;96738.56;;;32.48;35.46
14689;BME280;7432;48.728;9.154;2022-07-23T12:29:47;96735.50;;;32.22;36.61
14689;BME280;7432;48.728;9.154;2022-07-23T12:32:19;96741.66;;;32.23;36.74
14689;BME280;7432;48.728;9.154;2022-07-23T12:34:49;96736.75;;;32.11;37.53
14689;BME280;7432;48.728;9.154;2022-07-23T12:37:28;96726.19;;;32.06;37.32
14689;BME280;7432;48.728;9.154;2022-07-23T12:39:55;96722.75;;;31.26;37.81
14689;BME280;7432;48.728;9.154;2022-07-23T12:42:22;96739.00;;;31.48;37.84
14689;BME280;7432;48.728;9.154;2022-07-23T12:45:09;96732.59;;;31.49;37.89
14689;BME280;7432;48.728;9.154;2022-07-23T12:47:51;96735.34;;;31.63;37.57
14689;BME280;7432;48.728;9.154;2022-07-23T12:50:38;96736.50;;;31.33;37.47
14689;BME280;7432;48.728;9.154;2022-07-23T12:53:06;96730.88;;;31.35;37.84
14689;BME280;7432;48.728;9.154;2022-07-23T12:55:33;96751.50;;;31.48;38.59
14689;BME280;7432;48.728;9.154;2022-07-23T12:58:05;96740.72;;;30.63;38.90
14689;BME280;7432;48.728;9.154;2022-07-23T13:00:31;96742.06;;;30.32;39.11
14689;BME280;7432;48.728;9.154;2022-07-23T13:02:58;96738.72;;;30.21;39.97
14689;BME280;7432;48.728;9.154;2022-07-23T13:05:24;96739.84;;;30.44;40.38
14689;BME280;7432;48.728;9.154;2022-07-23T13:07:52;96742.44;;;30.78;38.71
14689;BME280;7432;48.728;9.154;2022-07-23T13:10:19;96745.22;;;30.91;38.40
14689;BME280;7432;48.728;9.154;2022-07-23T13:12:45;96743.19;;;31.12;39.09
14689;BME280;7432;48.728;9.154;2022-07-23T13:15:11;96749.00;;;31.14;39.35
14689;BME280;7432;48.728;9.154;2022-07-23T13:17:38;96742.34;;;31.35;37.95
14689;BME280;7432;48.728;9.154;2022-07-23T13:20:06;96752.09;;;31.45;37.78
14689;BME280;7432;48.728;9.154;2022-07-23T13:22:32;96754.47;;;31.65;37.19
14689;BME280;7432;48.728;9.154;2022-07-23T13:25:00;96759.84;;;31.18;37.67